Needa, Texas
Current Conditions -  °F | °C
As of 9:35 AM on Friday 19 Dec 2014 (Local Time) from KT20 Reporting Station
Overcast Overcast  
Wind Chill: 52°   Ceiling: 800
Heat Index: 52°   Visibility: 10mi
Dew Point: 51°   Wind: 9mph
Humidity: 95%   Direction: 30°NNE
Pressure: 30.09"   Gusts: 18mph
Location:  29.4298°N, 97.5714°W
Report Text: KT20 191535Z AUTO 03008G16KT 10SM BKN008 OVC034 11/11 A3009 RMK AO2 T01130106
Loading
Personal Weather Stations






























Interactive Weather Map New forecast layout! Learn more

10-Day Weather Forecast

Advertisements
Track Severe Weather on mobile